createdAt,value
2022-10-28T00:01:19.345Z,101560.50
2022-10-28T00:03:48.576Z,101557.50
2022-10-28T00:06:21.329Z,101553.97
2022-10-28T00:08:48.506Z,101545.13
2022-10-28T00:11:20.487Z,101553.38
2022-10-28T00:13:47.306Z,101551.00
2022-10-28T00:16:17.246Z,101545.00
2022-10-28T00:18:44.264Z,101550.63
2022-10-28T00:21:16.010Z,101555.06
2022-10-28T00:23:42.479Z,101556.34
2022-10-28T00:26:10.554Z,101555.16
2022-10-28T00:28:40.841Z,101544.69
2022-10-28T00:31:08.745Z,101543.53
2022-10-28T00:33:35.492Z,101547.56
2022-10-28T00:36:13.740Z,101533.75
2022-10-28T00:38:41.643Z,101539.66
2022-10-28T00:41:09.634Z,101535.19
2022-10-28T00:43:46.194Z,101527.31
2022-10-28T00:46:39.424Z,101533.06
2022-10-28T00:49:27.851Z,101525.72
2022-10-28T00:52:02.287Z,101529.44
2022-10-28T00:54:30.707Z,101523.19
2022-10-28T00:57:01.053Z,101519.47
2022-10-28T00:59:37.590Z,101514.78
2022-10-28T01:02:05.342Z,101513.31
2022-10-28T01:04:32.362Z,101509.50
2022-10-28T01:07:01.229Z,101505.63
2022-10-28T01:09:27.998Z,101508.03
2022-10-28T01:12:00.528Z,101497.50
2022-10-28T01:14:58.384Z,101503.75
2022-10-28T01:17:35.812Z,101499.91
2022-10-28T01:20:52.587Z,101499.69
2022-10-28T01:23:46.131Z,101494.31
2022-10-28T01:26:21.677Z,101488.75
2022-10-28T01:29:21.969Z,101492.72
2022-10-28T01:31:59.081Z,101494.31
2022-10-28T01:34:31.607Z,101494.78
2022-10-28T01:37:08.559Z,101506.69
2022-10-28T01:39:49.690Z,101502.22
2022-10-28T01:42:54.401Z,101499.38
2022-10-28T01:45:30.570Z,101500.06
2022-10-28T01:48:01.712Z,101499.16
2022-10-28T01:50:55.471Z,101497.88
2022-10-28T01:53:27.412Z,101495.59
2022-10-28T01:55:58.071Z,101487.31
2022-10-28T01:58:30.931Z,101494.50
2022-10-28T02:01:00.351Z,101495.50
2022-10-28T02:03:28.271Z,101500.66
2022-10-28T02:06:00.074Z,101501.34
2022-10-28T02:08:26.319Z,101491.44
2022-10-28T02:11:03.934Z,101501.34
2022-10-28T02:13:54.175Z,101498.47
2022-10-28T02:16:33.452Z,101490.47
2022-10-28T02:19:36.639Z,101490.91
2022-10-28T02:22:18.369Z,101490.47
2022-10-28T02:24:50.586Z,101496.44
2022-10-28T02:27:28.897Z,101494.34
2022-10-28T02:30:12.831Z,101503.16
2022-10-28T02:32:44.441Z,101506.47
2022-10-28T02:35:18.963Z,101499.44
2022-10-28T02:37:49.036Z,101502.06
2022-10-28T02:40:21.252Z,101502.34
2022-10-28T02:42:52.634Z,101493.16
2022-10-28T02:45:22.741Z,101491.41
2022-10-28T02:47:57.570Z,101486.81
2022-10-28T02:50:30.183Z,101485.13
2022-10-28T02:52:59.548Z,101484.66
2022-10-28T02:55:34.456Z,101480.66
2022-10-28T02:58:00.973Z,101486.00
2022-10-28T03:00:27.358Z,101495.19
2022-10-28T03:02:53.818Z,101499.47
2022-10-28T03:05:20.743Z,101510.69
2022-10-28T03:07:47.059Z,101513.41
2022-10-28T03:10:13.430Z,101515.94
2022-10-28T03:12:39.770Z,101513.84
2022-10-28T03:15:06.605Z,101518.78
2022-10-28T03:17:32.931Z,101509.63
2022-10-28T03:19:59.319Z,101502.81
2022-10-28T03:22:25.697Z,101499.16
2022-10-28T03:24:52.222Z,101496.00
2022-10-28T03:27:18.631Z,101485.22
2022-10-28T03:29:46.095Z,101494.59
2022-10-28T03:32:12.717Z,101502.16
2022-10-28T03:34:39.193Z,101501.22
2022-10-28T03:37:05.558Z,101514.31
2022-10-28T03:39:31.864Z,101525.16
2022-10-28T03:41:58.237Z,101514.84
2022-10-28T03:44:24.668Z,101513.09
2022-10-28T03:46:50.967Z,101503.75
2022-10-28T03:49:17.311Z,101512.66
2022-10-28T03:51:43.637Z,101506.56
2022-10-28T03:54:09.978Z,101502.81
2022-10-28T03:56:36.376Z,101499.72
2022-10-28T03:59:02.689Z,101502.56
2022-10-28T04:01:29.084Z,101506.56
2022-10-28T04:03:55.500Z,101509.31
2022-10-28T04:06:21.911Z,101511.38
2022-10-28T04:08:48.269Z,101499.47
2022-10-28T04:11:14.617Z,101509.22
2022-10-28T04:13:40.918Z,101498.47
2022-10-28T04:16:07.316Z,101497.94
2022-10-28T04:18:35.345Z,101501.22
2022-10-28T04:21:02.664Z,101489.44
2022-10-28T04:23:29.234Z,101495.84
2022-10-28T04:25:55.671Z,101494.59
2022-10-28T04:28:24.312Z,101493.63
2022-10-28T04:30:50.619Z,101496.53
2022-10-28T04:33:17.041Z,101489.84
2022-10-28T04:35:43.376Z,101485.72
2022-10-28T04:38:14.134Z,101472.72
2022-10-28T04:40:40.907Z,101472.53
2022-10-28T04:43:09.711Z,101482.44
2022-10-28T04:45:36.670Z,101481.38
2022-10-28T04:48:03.138Z,101481.22
2022-10-28T04:50:29.469Z,101482.59
2022-10-28T04:52:56.216Z,101473.88
2022-10-28T04:55:23.021Z,101476.78
2022-10-28T04:57:57.736Z,101471.16
2022-10-28T05:00:26.493Z,101457.75
2022-10-28T05:02:53.462Z,101445.03
2022-10-28T05:05:20.197Z,101447.16
2022-10-28T05:07:46.592Z,101429.72
2022-10-28T05:10:15.570Z,101417.44
2022-10-28T05:12:42.905Z,101411.56
2022-10-28T05:15:10.020Z,101410.31
2022-10-28T05:17:38.802Z,101394.25
2022-10-28T05:20:06.467Z,101373.59
2022-10-28T05:22:32.817Z,101358.88
2022-10-28T05:24:59.172Z,101349.03
2022-10-28T05:27:25.638Z,101329.44
2022-10-28T05:29:51.976Z,101323.28
2022-10-28T05:32:18.323Z,101337.34
2022-10-28T05:34:44.635Z,101363.09
2022-10-28T05:37:11.321Z,101373.81
2022-10-28T05:39:37.845Z,101400.19
2022-10-28T05:42:04.391Z,101404.44
2022-10-28T05:44:30.744Z,101392.63
2022-10-28T05:46:57.095Z,101383.06
2022-10-28T05:49:23.538Z,101383.06
2022-10-28T05:51:49.866Z,101386.59
2022-10-28T05:54:16.159Z,101393.31
2022-10-28T05:56:42.444Z,101395.94
2022-10-28T05:59:08.798Z,101398.69
2022-10-28T06:01:35.157Z,101419.75
2022-10-28T06:04:01.564Z,101428.28
2022-10-28T06:06:28.821Z,101412.97
2022-10-28T06:08:55.164Z,101414.91
2022-10-28T06:11:20.069Z,101418.47
2022-10-28T06:13:46.554Z,101414.81
2022-10-28T06:16:13.098Z,101412.75
2022-10-28T06:18:39.553Z,101423.19
2022-10-28T06:21:05.910Z,101411.50
2022-10-28T06:23:32.241Z,101401.28
2022-10-28T06:26:00.468Z,101392.00
2022-10-28T06:28:27.030Z,101401.28
2022-10-28T06:30:53.433Z,101411.03
2022-10-28T06:33:19.748Z,101430.50
2022-10-28T06:35:46.078Z,101417.06
2022-10-28T06:38:12.399Z,101418.69
2022-10-28T06:40:38.759Z,101418.47
2022-10-28T06:43:11.913Z,101406.47
2022-10-28T06:45:38.374Z,101398.47
2022-10-28T06:48:06.403Z,101395.69
2022-10-28T06:50:34.378Z,101393.75
2022-10-28T06:53:01.033Z,101396.13
2022-10-28T06:55:28.578Z,101404.16
2022-10-28T06:57:59.643Z,101401.28
2022-10-28T07:00:26.787Z,101407.13
2022-10-28T07:02:54.068Z,101411.91
2022-10-28T07:05:21.988Z,101414.22
2022-10-28T07:07:48.316Z,101429.22
2022-10-28T07:10:14.768Z,101433.56
2022-10-28T07:12:41.199Z,101427.75
2022-10-28T07:15:08.161Z,101455.78
2022-10-28T07:17:34.525Z,101464.50
2022-10-28T07:20:00.909Z,101469.75
2022-10-28T07:22:27.247Z,101481.78
2022-10-28T07:24:53.571Z,101482.91
2022-10-28T07:27:19.966Z,101471.38
2022-10-28T07:29:46.303Z,101486.00
2022-10-28T07:32:12.668Z,101475.00
2022-10-28T07:34:39.029Z,101473.53
2022-10-28T07:37:06.084Z,101467.22
2022-10-28T07:39:32.709Z,101445.38
2022-10-28T07:42:01.110Z,101425.25
2022-10-28T07:44:27.480Z,101411.59
2022-10-28T07:46:57.174Z,101406.00
2022-10-28T07:49:24.702Z,101408.63
2022-10-28T07:51:51.461Z,101405.63
2022-10-28T07:54:17.833Z,101401.63
2022-10-28T07:56:44.215Z,101400.13
2022-10-28T07:59:10.550Z,101408.81
2022-10-28T08:01:37.117Z,101402.75
2022-10-28T08:04:03.585Z,101401.81
2022-10-28T08:06:30.023Z,101394.69
2022-10-28T08:08:57.460Z,101384.34
2022-10-28T08:11:24.331Z,101358.88
2022-10-28T08:13:52.412Z,101366.53
2022-10-28T08:16:19.365Z,101376.94
2022-10-28T08:18:46.112Z,101385.28
2022-10-28T08:21:14.109Z,101373.88
2022-10-28T08:23:41.632Z,101381.00
2022-10-28T08:26:08.260Z,101377.22
2022-10-28T08:28:34.608Z,101385.22
2022-10-28T08:31:10.435Z,101390.19
2022-10-28T08:33:38.952Z,101379.97
2022-10-28T08:36:06.648Z,101382.28
2022-10-28T08:38:33.077Z,101385.94
2022-10-28T08:41:21.724Z,101392.78
2022-10-28T08:44:06.745Z,101391.97
2022-10-28T08:46:57.666Z,101394.66
2022-10-28T08:49:24.682Z,101384.19
2022-10-28T08:52:00.848Z,101390.94
2022-10-28T08:54:47.130Z,101383.84
2022-10-28T08:57:20.546Z,101385.53
2022-10-28T08:59:52.003Z,101386.84
2022-10-28T09:02:24.474Z,101382.41
2022-10-28T09:05:21.245Z,101382.88
2022-10-28T09:07:47.960Z,101383.28
2022-10-28T09:10:16.367Z,101390.41
2022-10-28T09:13:06.727Z,101378.59
2022-10-28T09:18:31.051Z,101366.03
2022-10-28T09:21:02.766Z,101377.06
2022-10-28T09:23:44.169Z,101375.09
2022-10-28T09:26:36.626Z,101375.66
2022-10-28T09:29:30.270Z,101378.06
2022-10-28T09:32:33.072Z,101371.47
2022-10-28T09:35:34.774Z,101367.81
2022-10-28T09:38:28.546Z,101362.03
2022-10-28T09:41:08.088Z,101354.47
2022-10-28T09:43:38.541Z,101358.50
2022-10-28T09:46:12.638Z,101363.38
2022-10-28T09:48:48.206Z,101360.78
2022-10-28T09:52:08.518Z,101359.47
2022-10-28T09:54:37.665Z,101364.44
2022-10-28T09:57:04.713Z,101358.91
2022-10-28T09:59:31.048Z,101361.91
2022-10-28T10:01:57.867Z,101359.25
2022-10-28T10:04:27.173Z,101353.84
2022-10-28T10:07:02.907Z,101349.56
2022-10-28T10:09:32.054Z,101353.19
2022-10-28T10:12:16.984Z,101352.28
2022-10-28T10:14:52.726Z,101347.91
2022-10-28T10:17:22.575Z,101348.56
2022-10-28T10:20:09.900Z,101342.84
2022-10-28T10:22:41.850Z,101343.50
2022-10-28T10:25:20.281Z,101338.91
2022-10-28T10:27:55.871Z,101343.13
2022-10-28T10:30:26.335Z,101340.28
2022-10-28T10:32:53.119Z,101345.22
2022-10-28T10:35:25.127Z,101337.97
2022-10-28T10:37:53.655Z,101336.97
2022-10-28T10:40:27.584Z,101336.19
2022-10-28T10:43:12.951Z,101334.72
2022-10-28T10:45:40.144Z,101344.66
2022-10-28T10:48:14.828Z,101338.69
2022-10-28T10:50:46.844Z,101344.66
2022-10-28T10:53:23.164Z,101340.72
2022-10-28T10:56:01.223Z,101339.56
2022-10-28T10:58:34.154Z,101340.50
2022-10-28T11:01:04.902Z,101342.44
2022-10-28T11:06:40.637Z,101352.47
2022-10-28T11:09:18.030Z,101346.22
2022-10-28T11:11:44.760Z,101344.63
2022-10-28T11:14:12.327Z,101334.75
2022-10-28T11:16:50.008Z,101333.69
2022-10-28T11:19:23.315Z,101331.63
2022-10-28T11:22:27.132Z,101329.97
2022-10-28T11:25:21.695Z,101323.94
2022-10-28T11:28:00.035Z,101328.78
2022-10-28T11:30:48.812Z,101317.94
2022-10-28T11:33:35.035Z,101317.59
2022-10-28T11:36:07.697Z,101311.13
2022-10-28T11:38:36.970Z,101307.00
2022-10-28T11:41:26.625Z,101298.28
2022-10-28T11:44:04.759Z,101296.81
2022-10-28T11:47:04.193Z,101304.06
2022-10-28T11:50:13.307Z,101297.06
2022-10-28T11:52:45.353Z,101295.03
2022-10-28T11:55:30.853Z,101298.63
2022-10-28T11:58:19.069Z,101291.97
2022-10-28T12:00:50.064Z,101286.97
2022-10-28T12:03:41.233Z,101286.66
2022-10-28T12:06:12.065Z,101285.19
2022-10-28T12:08:38.343Z,101284.97
2022-10-28T12:11:29.838Z,101281.16
2022-10-28T12:14:22.118Z,101272.50
2022-10-28T12:17:04.421Z,101282.81
2022-10-28T12:19:38.639Z,101278.44
2022-10-28T12:22:13.076Z,101272.94
2022-10-28T12:24:43.080Z,101277.00
2022-10-28T12:27:21.988Z,101267.91
2022-10-28T12:29:54.374Z,101267.97
2022-10-28T12:32:27.172Z,101266.34
2022-10-28T12:35:02.016Z,101268.75
2022-10-28T12:37:41.070Z,101260.88
2022-10-28T12:40:24.465Z,101257.69
2022-10-28T12:43:03.169Z,101255.44
2022-10-28T12:45:32.034Z,101246.69
2022-10-28T12:48:14.603Z,101243.56
2022-10-28T12:50:53.101Z,101244.94
2022-10-28T12:53:56.622Z,101241.72
2022-10-28T12:56:30.214Z,101240.84
2022-10-28T12:59:05.755Z,101237.66
2022-10-28T13:01:35.020Z,101240.44
2022-10-28T13:04:01.816Z,101234.94
2022-10-28T13:06:57.829Z,101237.66
2022-10-28T13:10:01.293Z,101240.97
2022-10-28T13:13:00.505Z,101235.38
2022-10-28T13:15:32.673Z,101239.31
2022-10-28T13:18:04.985Z,101235.81
2022-10-28T13:20:48.086Z,101224.75
2022-10-28T13:23:31.095Z,101230.22
2022-10-28T13:26:06.078Z,101228.25
2022-10-28T13:28:43.807Z,101226.38
2022-10-28T13:31:10.926Z,101232.28
2022-10-28T13:33:38.836Z,101224.75
2022-10-28T13:36:11.268Z,101227.63
2022-10-28T13:38:38.513Z,101231.63
2022-10-28T13:41:04.847Z,101230.03
2022-10-28T13:43:49.440Z,101232.72
2022-10-28T13:46:53.497Z,101240.69
2022-10-28T13:49:22.785Z,101239.56
2022-10-28T13:51:51.339Z,101225.72
2022-10-28T13:54:25.491Z,101224.50
2022-10-28T13:56:52.317Z,101226.53
2022-10-28T13:59:29.274Z,101232.47
2022-10-28T14:02:34.677Z,101232.06
2022-10-28T14:05:06.532Z,101232.88
2022-10-28T14:07:36.287Z,101226.53
2022-10-28T14:10:22.410Z,101240.38
2022-10-28T14:13:05.882Z,101236.81
2022-10-28T14:15:35.480Z,101240.38
2022-10-28T14:18:42.324Z,101230.53
2022-10-28T14:21:06.613Z,101227.41
2022-10-28T14:23:32.891Z,101231.31
2022-10-28T14:26:05.322Z,101223.44
2022-10-28T14:28:31.839Z,101218.28
2022-10-28T14:31:11.297Z,101225.41
2022-10-28T14:33:46.481Z,101221.88
2022-10-28T14:36:19.169Z,101220.25
2022-10-28T14:38:59.823Z,101216.28
2022-10-28T14:41:29.117Z,101226.50
2022-10-28T14:44:09.973Z,101216.16
2022-10-28T14:47:02.705Z,101218.09
2022-10-28T14:49:31.744Z,101178.97
2022-10-28T14:52:15.446Z,101205.25
2022-10-28T14:54:49.636Z,101214.19
2022-10-28T14:57:22.069Z,101209.19
2022-10-28T14:59:50.830Z,101208.50
2022-10-28T15:02:19.955Z,101206.81
2022-10-28T15:04:48.562Z,101201.78
2022-10-28T15:07:17.609Z,101200.59
2022-10-28T15:09:46.108Z,101204.41
2022-10-28T15:12:16.705Z,101204.84
2022-10-28T15:14:52.138Z,101199.81
2022-10-28T15:17:20.003Z,101200.66
2022-10-28T15:19:51.957Z,101200.06
2022-10-28T15:22:21.360Z,101199.00
2022-10-28T15:24:53.781Z,101204.97
2022-10-28T15:27:21.561Z,101201.00
2022-10-28T15:29:49.361Z,101201.00
2022-10-28T15:32:21.859Z,101199.81
2022-10-28T15:34:48.999Z,101190.31
2022-10-28T15:37:21.377Z,101197.81
2022-10-28T15:39:50.865Z,101190.69
2022-10-28T15:42:30.942Z,101186.34
2022-10-28T15:44:58.162Z,101189.41
2022-10-28T15:47:34.615Z,101186.63
2022-10-28T15:50:14.852Z,101179.06
2022-10-28T15:52:50.163Z,101176.28
2022-10-28T15:55:19.312Z,101181.00
2022-10-28T15:57:54.726Z,101176.59
2022-10-28T16:00:30.772Z,101176.97
2022-10-28T16:03:00.926Z,101181.94
2022-10-28T16:05:43.005Z,101177.97
2022-10-28T16:08:37.296Z,101177.97
2022-10-28T16:11:13.138Z,101178.41
2022-10-28T16:13:47.066Z,101184.59
2022-10-28T16:16:22.381Z,101183.78
2022-10-28T16:18:54.176Z,101191.94
2022-10-28T16:21:25.375Z,101186.28
2022-10-28T16:23:58.724Z,101192.88
2022-10-28T16:26:28.895Z,101183.53
2022-10-28T16:28:56.180Z,101185.38
2022-10-28T16:31:27.881Z,101181.19
2022-10-28T16:33:54.321Z,101181.19
2022-10-28T16:36:20.688Z,101176.66
2022-10-28T16:38:47.234Z,101183.13
2022-10-28T16:41:17.486Z,101182.69
2022-10-28T16:43:44.084Z,101175.09
2022-10-28T16:46:14.636Z,101174.41
2022-10-28T16:48:41.268Z,101175.13
2022-10-28T16:51:14.953Z,101173.38
2022-10-28T16:53:46.829Z,101177.69
2022-10-28T16:56:15.290Z,101172.53
2022-10-28T16:58:42.656Z,101168.53
2022-10-28T17:01:10.989Z,101174.41
2022-10-28T17:03:37.659Z,101174.97
2022-10-28T17:06:04.177Z,101171.00
2022-10-28T17:08:49.398Z,101164.94
2022-10-28T17:11:17.129Z,101174.66
2022-10-28T17:13:43.526Z,101175.97
2022-10-28T17:16:09.888Z,101176.34
2022-10-28T17:18:36.233Z,101175.84
2022-10-28T17:21:03.562Z,101180.34
2022-10-28T17:23:29.972Z,101173.75
2022-10-28T17:26:00.982Z,101170.69
2022-10-28T17:28:27.903Z,101179.50
2022-10-28T17:31:01.105Z,101174.47
2022-10-28T17:33:27.595Z,101179.25
2022-10-28T17:35:54.083Z,101186.03
2022-10-28T17:38:20.418Z,101188.69
2022-10-28T17:40:57.321Z,101185.13
2022-10-28T17:43:24.310Z,101182.00
2022-10-28T17:45:50.931Z,101172.53
2022-10-28T17:48:17.865Z,101178.75
2022-10-28T17:50:45.112Z,101172.00
2022-10-28T17:53:11.653Z,101180.72
2022-10-28T17:55:38.295Z,101183.47
2022-10-28T17:58:04.671Z,101186.88
2022-10-28T18:00:31.004Z,101179.41
2022-10-28T18:02:57.370Z,101183.69
2022-10-28T18:05:23.792Z,101178.97
2022-10-28T18:07:54.387Z,101183.63
2022-10-28T18:10:21.064Z,101186.72
2022-10-28T18:12:50.483Z,101181.94
2022-10-28T18:15:16.800Z,101177.53
2022-10-28T18:17:43.137Z,101167.16
2022-10-28T18:20:09.747Z,101171.59
2022-10-28T18:22:36.050Z,101172.31
2022-10-28T18:25:02.412Z,101176.59
2022-10-28T18:27:29.101Z,101176.97
2022-10-28T18:29:55.403Z,101180.81
2022-10-28T18:32:21.743Z,101184.78
2022-10-28T18:34:48.101Z,101181.19
2022-10-28T18:37:14.608Z,101183.22
2022-10-28T18:39:41.070Z,101173.09
2022-10-28T18:42:08.742Z,101184.81
2022-10-28T18:44:36.650Z,101177.69
2022-10-28T18:47:03.143Z,101181.25
2022-10-28T18:49:29.675Z,101172.91
2022-10-28T18:51:56.040Z,101168.22
2022-10-28T18:54:22.410Z,101172.09
2022-10-28T18:56:50.552Z,101161.81
2022-10-28T18:59:18.844Z,101164.38
2022-10-28T19:01:46.921Z,101166.16
2022-10-28T19:04:14.417Z,101172.91
2022-10-28T19:06:41.148Z,101172.81
2022-10-28T19:09:07.776Z,101175.66
2022-10-28T19:11:34.549Z,101172.75
2022-10-28T19:14:03.579Z,101164.19
2022-10-28T19:16:33.130Z,101173.63
2022-10-28T19:19:00.989Z,101179.94
2022-10-28T19:21:28.095Z,101181.34
2022-10-28T19:23:54.746Z,101181.69
2022-10-28T19:26:22.893Z,101181.88
2022-10-28T19:28:50.688Z,101172.28
2022-10-28T19:31:19.758Z,101176.81
2022-10-28T19:33:46.255Z,101172.25
2022-10-28T19:36:18.439Z,101181.72
2022-10-28T19:38:45.971Z,101183.06
2022-10-28T19:41:17.961Z,101190.53
2022-10-28T19:43:45.544Z,101195.66
2022-10-28T19:46:14.807Z,101200.00
2022-10-28T19:48:43.284Z,101209.59
2022-10-28T19:51:13.708Z,101220.91
2022-10-28T19:53:40.061Z,101218.28
2022-10-28T19:56:06.785Z,101220.53
2022-10-28T19:58:33.458Z,101214.75
2022-10-28T20:01:08.992Z,101227.28
2022-10-28T20:03:36.905Z,101228.00
2022-10-28T20:06:06.710Z,101231.03
2022-10-28T20:08:35.260Z,101236.97
2022-10-28T20:11:04.164Z,101236.16
2022-10-28T20:13:30.983Z,101239.28
2022-10-28T20:16:02.043Z,101238.59
2022-10-28T20:18:32.682Z,101245.44
2022-10-28T20:21:06.697Z,101241.47
2022-10-28T20:23:35.635Z,101244.47
2022-10-28T20:26:04.000Z,101245.72
2022-10-28T20:28:30.735Z,101236.81
2022-10-28T20:31:01.256Z,101244.44
2022-10-28T20:33:28.523Z,101245.41
2022-10-28T20:35:55.865Z,101248.06
2022-10-28T20:38:23.291Z,101253.38
2022-10-28T20:40:52.150Z,101247.31
2022-10-28T20:43:22.097Z,101247.47
2022-10-28T20:45:59.390Z,101253.69
2022-10-28T20:48:30.671Z,101249.91
2022-10-28T20:51:02.037Z,101243.34
2022-10-28T20:53:32.842Z,101247.22
2022-10-28T20:55:59.542Z,101249.97
2022-10-28T20:58:29.052Z,101253.31
2022-10-28T21:01:02.739Z,101250.69
2022-10-28T21:03:29.282Z,101247.81
2022-10-28T21:05:55.814Z,101244.72
2022-10-28T21:08:22.295Z,101255.72
2022-10-28T21:10:48.948Z,101247.47
2022-10-28T21:13:15.295Z,101248.63
2022-10-28T21:15:45.553Z,101252.91
2022-10-28T21:18:12.440Z,101250.50
2022-10-28T21:20:39.492Z,101249.59
2022-10-28T21:23:07.428Z,101248.88
2022-10-28T21:25:33.900Z,101254.59
2022-10-28T21:28:00.894Z,101253.31
2022-10-28T21:30:28.071Z,101256.75
2022-10-28T21:32:54.933Z,101252.84
2022-10-28T21:35:22.002Z,101261.75
2022-10-28T21:37:48.368Z,101258.03
2022-10-28T21:40:14.928Z,101255.19
2022-10-28T21:42:41.399Z,101248.72
2022-10-28T21:45:08.412Z,101251.66
2022-10-28T21:47:34.916Z,101262.78
2022-10-28T21:50:01.272Z,101256.63
2022-10-28T21:52:27.639Z,101263.00
2022-10-28T21:54:54.000Z,101263.00
2022-10-28T21:57:20.349Z,101266.41
2022-10-28T21:59:49.436Z,101251.47
2022-10-28T22:02:15.944Z,101253.78
2022-10-28T22:04:42.498Z,101256.25
2022-10-28T22:07:08.903Z,101256.63
2022-10-28T22:09:37.455Z,101258.50
2022-10-28T22:12:04.730Z,101265.94
2022-10-28T22:14:32.002Z,101262.28
2022-10-28T22:16:58.418Z,101260.78
2022-10-28T22:19:24.721Z,101261.78
2022-10-28T22:21:51.114Z,101259.66
2022-10-28T22:24:17.460Z,101261.72
2022-10-28T22:26:43.823Z,101267.34
2022-10-28T22:29:10.304Z,101275.06
2022-10-28T22:31:36.676Z,101278.16
2022-10-28T22:34:05.242Z,101265.81
2022-10-28T22:36:31.672Z,101277.09
2022-10-28T22:38:58.221Z,101280.19
2022-10-28T22:41:27.328Z,101287.56
2022-10-28T22:43:56.548Z,101306.22
2022-10-28T22:46:26.087Z,101295.88
2022-10-28T22:48:53.357Z,101282.94
2022-10-28T22:51:20.214Z,101281.00
2022-10-28T22:53:46.665Z,101267.06
2022-10-28T22:56:20.198Z,101251.53
2022-10-28T22:58:47.645Z,101266.19
2022-10-28T23:01:16.914Z,101269.03
2022-10-28T23:03:45.923Z,101266.28
2022-10-28T23:06:13.874Z,101277.63
2022-10-28T23:08:41.680Z,101286.59
2022-10-28T23:11:09.074Z,101290.59
2022-10-28T23:18:55.469Z,101279.69
2022-10-28T23:21:25.952Z,101282.53
2022-10-28T23:23:57.081Z,101285.09
2022-10-28T23:26:24.477Z,101292.81
2022-10-28T23:28:52.915Z,101298.34
2022-10-28T23:31:20.064Z,101299.63
2022-10-28T23:33:46.718Z,101310.28
2022-10-28T23:36:14.799Z,101313.91
2022-10-28T23:38:41.964Z,101317.34
2022-10-28T23:41:16.249Z,101325.06
2022-10-28T23:43:42.885Z,101319.28
2022-10-28T23:46:09.688Z,101321.84
2022-10-28T23:48:36.006Z,101325.59
2022-10-28T23:51:02.594Z,101330.34
2022-10-28T23:53:30.486Z,101323.25
2022-10-28T23:55:57.603Z,101320.31
2022-10-28T23:58:24.013Z,101325.47
